createdAt,value
2022-09-26T00:00:32.440Z,5.57
2022-09-26T00:03:19.696Z,7.40
2022-09-26T00:06:08.360Z,5.97
2022-09-26T00:08:55.649Z,6.65
2022-09-26T00:11:44.552Z,5.55
2022-09-26T00:14:31.483Z,6.65
2022-09-26T00:17:18.366Z,6.18
2022-09-26T00:20:05.790Z,5.10
2022-09-26T00:22:52.649Z,6.38
2022-09-26T00:25:51.406Z,7.10
2022-09-26T00:28:38.927Z,6.97
2022-09-26T00:31:30.704Z,5.75
2022-09-26T00:34:19.545Z,7.03
2022-09-26T00:37:06.524Z,5.78
2022-09-26T00:39:53.443Z,6.88
2022-09-26T00:42:40.314Z,5.75
2022-09-26T00:45:30.530Z,5.85
2022-09-26T00:48:19.053Z,6.90
2022-09-26T00:51:06.673Z,6.07
2022-09-26T00:53:54.211Z,6.30
2022-09-26T00:56:43.652Z,9.68
2022-09-26T00:59:37.177Z,4.93
2022-09-26T01:02:27.436Z,5.82
2022-09-26T01:05:18.660Z,6.28
2022-09-26T01:08:06.239Z,5.30
2022-09-26T01:10:53.489Z,5.95
2022-09-26T01:13:40.592Z,6.03
2022-09-26T01:16:27.905Z,5.45
2022-09-26T01:19:39.190Z,7.43
2022-09-26T01:22:54.010Z,5.53
2022-09-26T01:26:11.779Z,6.18
2022-09-26T01:29:15.795Z,6.57
2022-09-26T01:32:43.262Z,7.03
2022-09-26T01:35:51.409Z,5.35
2022-09-26T01:39:23.633Z,5.85
2022-09-26T01:42:45.964Z,5.25
2022-09-26T01:45:59.132Z,5.57
2022-09-26T01:48:52.033Z,5.47
2022-09-26T01:52:05.841Z,6.55
2022-09-26T01:55:07.529Z,6.43
2022-09-26T01:58:01.997Z,8.52
2022-09-26T02:00:50.077Z,6.13
2022-09-26T02:03:41.899Z,5.45
2022-09-26T02:06:35.786Z,6.85
2022-09-26T02:09:40.492Z,7.63
2022-09-26T02:12:32.961Z,6.60
2022-09-26T02:15:21.785Z,7.28
2022-09-26T02:18:17.363Z,7.28
2022-09-26T02:21:13.081Z,6.30
2022-09-26T02:23:59.931Z,6.25
2022-09-26T02:26:46.793Z,7.43
2022-09-26T02:29:34.292Z,7.45
2022-09-26T02:32:26.042Z,5.47
2022-09-26T02:35:32.007Z,6.82
2022-09-26T02:38:18.823Z,8.15
2022-09-26T02:41:47.591Z,6.82
2022-09-26T02:44:52.305Z,5.75
2022-09-26T02:48:17.669Z,7.13
2022-09-26T02:51:32.130Z,6.68
2022-09-26T02:57:51.495Z,6.68
2022-09-26T03:00:53.389Z,6.88
2022-09-26T03:06:35.905Z,5.63
2022-09-26T03:09:24.849Z,6.97
2022-09-26T03:12:12.341Z,8.27
2022-09-26T03:15:00.592Z,6.32
2022-09-26T03:17:53.560Z,8.80
2022-09-26T03:20:41.559Z,6.65
2022-09-26T03:23:29.507Z,5.50
2022-09-26T03:26:20.134Z,6.93
2022-09-26T03:29:07.229Z,6.53
2022-09-26T03:31:54.115Z,7.30
2022-09-26T03:34:41.014Z,7.57
2022-09-26T03:37:27.830Z,7.38
2022-09-26T03:40:15.782Z,9.85
2022-09-26T03:43:02.730Z,6.65
2022-09-26T03:45:50.688Z,5.57
2022-09-26T03:48:38.358Z,6.68
2022-09-26T03:51:25.233Z,7.47
2022-09-26T03:54:13.197Z,8.27
2022-09-26T03:57:00.073Z,7.55
2022-09-26T03:59:46.968Z,9.43
2022-09-26T04:02:34.514Z,6.85
2022-09-26T04:05:21.733Z,7.75
2022-09-26T04:08:09.292Z,7.88
2022-09-26T04:11:07.911Z,7.00
2022-09-26T04:13:54.814Z,7.80
2022-09-26T04:16:41.780Z,7.28
2022-09-26T04:19:28.701Z,7.45
2022-09-26T04:22:15.726Z,8.05
2022-09-26T04:25:02.631Z,8.38
2022-09-26T04:27:49.582Z,6.50
2022-09-26T04:30:37.238Z,9.23
2022-09-26T04:33:24.559Z,6.85
2022-09-26T04:36:13.588Z,11.15
2022-09-26T04:39:00.747Z,8.60
2022-09-26T04:41:47.681Z,6.32
2022-09-26T04:44:34.538Z,8.57
2022-09-26T04:47:21.384Z,7.28
2022-09-26T04:50:08.413Z,7.35
2022-09-26T04:52:55.277Z,8.75
2022-09-26T04:55:49.014Z,7.50
2022-09-26T04:58:38.057Z,11.82
2022-09-26T05:01:25.762Z,7.88
2022-09-26T05:04:13.508Z,11.23
2022-09-26T05:07:00.625Z,9.38
2022-09-26T05:09:47.964Z,8.88
2022-09-26T05:12:34.812Z,8.00
2022-09-26T05:15:21.681Z,7.65
2022-09-26T05:18:09.558Z,7.07
2022-09-26T05:20:57.532Z,8.63
2022-09-26T05:24:02.772Z,8.38
2022-09-26T05:26:52.434Z,9.02
2022-09-26T05:29:39.795Z,11.57
2022-09-26T05:32:29.125Z,8.15
2022-09-26T05:35:16.235Z,8.07
2022-09-26T05:38:04.829Z,7.47
2022-09-26T05:40:57.097Z,8.20
2022-09-26T05:43:44.105Z,11.63
2022-09-26T05:46:32.205Z,8.07
2022-09-26T05:49:19.138Z,10.80
2022-09-26T05:52:06.048Z,10.13
2022-09-26T05:54:52.865Z,8.60
2022-09-26T05:57:39.696Z,8.48
2022-09-26T06:00:27.665Z,8.23
2022-09-26T06:03:15.601Z,9.63
2022-09-26T06:06:03.619Z,7.53
2022-09-26T06:08:50.445Z,8.57
2022-09-26T06:11:37.265Z,9.05
2022-09-26T06:14:26.241Z,8.40
2022-09-26T06:17:13.508Z,12.95
2022-09-26T06:20:00.459Z,8.63
2022-09-26T06:22:47.289Z,9.88
2022-09-26T06:25:34.152Z,7.78
2022-09-26T06:28:21.060Z,10.20
2022-09-26T06:31:16.687Z,10.90
2022-09-26T06:34:05.415Z,8.77
2022-09-26T06:36:52.261Z,8.40
2022-09-26T06:39:39.080Z,7.78
2022-09-26T06:42:26.109Z,9.07
2022-09-26T06:45:12.947Z,8.23
2022-09-26T06:48:03.459Z,7.55
2022-09-26T06:50:54.537Z,7.55
2022-09-26T06:53:42.935Z,9.48
2022-09-26T06:56:29.754Z,8.43
2022-09-26T06:59:16.958Z,7.95
2022-09-26T07:02:04.243Z,7.93
2022-09-26T07:04:52.345Z,11.13
2022-09-26T07:07:45.528Z,7.78
2022-09-26T07:10:34.723Z,7.35
2022-09-26T07:13:21.837Z,6.93
2022-09-26T07:16:08.755Z,6.82
2022-09-26T07:18:55.935Z,8.90
2022-09-26T07:21:42.863Z,6.38
2022-09-26T07:24:29.705Z,6.75
2022-09-26T07:27:17.966Z,5.32
2022-09-26T07:30:06.687Z,7.57
2022-09-26T07:32:58.529Z,7.40
2022-09-26T07:35:46.272Z,7.88
2022-09-26T07:38:33.135Z,5.95
2022-09-26T07:41:19.985Z,5.65
2022-09-26T07:47:32.394Z,5.93
2022-09-26T07:50:19.976Z,4.82
2022-09-26T07:53:06.817Z,4.60
2022-09-26T07:56:06.157Z,6.57
2022-09-26T07:58:54.473Z,4.60
2022-09-26T08:01:41.348Z,6.20
2022-09-26T08:04:28.811Z,6.53
2022-09-26T08:07:16.087Z,6.53
2022-09-26T08:10:05.593Z,5.43
2022-09-26T08:15:39.320Z,5.47
2022-09-26T08:18:26.155Z,4.43
2022-09-26T08:21:13.056Z,4.43
2022-09-26T08:24:00.106Z,6.03
2022-09-26T08:26:46.954Z,4.20
2022-09-26T08:29:34.226Z,5.03
2022-09-26T08:32:21.265Z,6.80
2022-09-26T08:35:12.140Z,3.13
2022-09-26T08:38:03.369Z,6.45
2022-09-26T08:40:56.395Z,3.92
2022-09-26T08:44:10.356Z,5.47
2022-09-26T08:47:06.525Z,5.18
2022-09-26T08:50:02.222Z,2.72
2022-09-26T08:53:24.781Z,3.95
2022-09-26T08:56:26.082Z,3.33
2022-09-26T08:59:22.961Z,4.78
2022-09-26T09:02:38.464Z,3.15
2022-09-26T09:05:31.459Z,3.25
2022-09-26T09:08:41.065Z,3.50
2022-09-26T09:11:43.180Z,6.88
2022-09-26T09:15:20.642Z,2.95
2022-09-26T09:18:13.899Z,3.67
2022-09-26T09:21:41.427Z,3.28
2022-09-26T09:25:00.988Z,4.50
2022-09-26T09:28:08.551Z,4.57
2022-09-26T09:30:59.431Z,3.85
2022-09-26T09:33:50.183Z,2.47
2022-09-26T09:36:50.969Z,3.33
2022-09-26T09:39:41.572Z,4.05
2022-09-26T09:42:39.561Z,2.67
2022-09-26T09:45:36.547Z,5.38
2022-09-26T09:48:27.145Z,4.60
2022-09-26T09:51:42.100Z,3.72
2022-09-26T09:54:56.160Z,3.38
2022-09-26T09:57:50.396Z,3.67
2022-09-26T10:00:51.210Z,3.13
2022-09-26T10:04:21.036Z,4.80
2022-09-26T10:07:08.152Z,3.53
2022-09-26T10:09:55.044Z,3.78
2022-09-26T10:12:43.604Z,3.67
2022-09-26T10:15:31.310Z,5.15
2022-09-26T10:18:26.006Z,4.13
2022-09-26T10:21:19.016Z,4.25
2022-09-26T10:24:07.798Z,3.15
2022-09-26T10:26:54.724Z,3.80
2022-09-26T10:29:41.636Z,5.93
2022-09-26T10:32:29.633Z,3.75
2022-09-26T10:35:24.155Z,2.00
2022-09-26T10:38:27.476Z,2.50
2022-09-26T10:41:24.023Z,1.95
2022-09-26T10:44:30.509Z,2.47
2022-09-26T10:47:26.332Z,2.92
2022-09-26T10:50:27.892Z,1.98
2022-09-26T10:53:15.596Z,2.47
2022-09-26T10:56:10.289Z,2.75
2022-09-26T10:59:10.193Z,3.97
2022-09-26T11:01:59.422Z,3.17
2022-09-26T11:07:52.736Z,4.32
2022-09-26T11:10:42.005Z,2.35
2022-09-26T11:16:20.560Z,3.42
2022-09-26T11:19:19.825Z,3.72
2022-09-26T11:22:32.310Z,2.33
2022-09-26T11:25:26.946Z,5.32
2022-09-26T11:28:24.888Z,3.38
2022-09-26T11:31:30.731Z,3.20
2022-09-26T11:34:26.325Z,2.13
2022-09-26T11:37:30.068Z,2.05
2022-09-26T11:40:31.906Z,2.20
2022-09-26T11:47:01.422Z,1.67
2022-09-26T11:50:24.623Z,1.60
2022-09-26T11:53:31.922Z,4.10
2022-09-26T11:56:25.617Z,2.80
2022-09-26T11:59:37.874Z,2.38
2022-09-26T12:02:47.441Z,3.00
2022-09-26T12:05:54.245Z,2.17
2022-09-26T12:09:04.909Z,3.40
2022-09-26T12:12:16.885Z,2.33
2022-09-26T12:15:25.677Z,2.08
2022-09-26T12:18:25.381Z,3.80
2022-09-26T12:21:21.173Z,2.05
2022-09-26T12:24:34.053Z,2.15
2022-09-26T12:27:44.511Z,3.85
2022-09-26T12:30:43.910Z,2.65
2022-09-26T12:33:49.527Z,2.47
2022-09-26T12:36:48.471Z,1.23
2022-09-26T12:40:01.691Z,3.28
2022-09-26T12:42:59.561Z,2.13
2022-09-26T12:46:10.850Z,2.53
2022-09-26T12:49:10.020Z,1.30
2022-09-26T12:52:27.500Z,4.13
2022-09-26T12:55:37.662Z,1.90
2022-09-26T12:58:46.666Z,2.10
2022-09-26T13:02:12.090Z,2.53
2022-09-26T13:05:18.808Z,2.67
2022-09-26T13:08:15.623Z,1.88
2022-09-26T13:11:15.545Z,1.95
2022-09-26T13:14:21.081Z,2.60
2022-09-26T13:17:25.211Z,2.45
2022-09-26T13:20:31.661Z,2.10
2022-09-26T13:23:37.781Z,2.28
2022-09-26T13:26:37.158Z,2.22
2022-09-26T13:29:29.055Z,1.63
2022-09-26T13:32:27.210Z,1.55
2022-09-26T13:35:24.113Z,1.85
2022-09-26T13:38:20.186Z,3.13
2022-09-26T13:41:23.583Z,1.45
2022-09-26T13:44:22.957Z,3.67
2022-09-26T13:47:37.880Z,2.95
2022-09-26T13:50:34.576Z,3.03
2022-09-26T13:54:03.004Z,1.85
2022-09-26T13:56:50.760Z,2.03
2022-09-26T13:59:51.909Z,1.90
2022-09-26T14:02:39.563Z,2.50
2022-09-26T14:05:28.576Z,2.60
2022-09-26T14:08:43.068Z,1.40
2022-09-26T14:11:51.595Z,1.70
2022-09-26T14:14:43.580Z,2.03
2022-09-26T14:17:50.662Z,3.38
2022-09-26T14:20:56.848Z,2.78
2022-09-26T14:23:45.211Z,2.58
2022-09-26T14:26:42.893Z,2.42
2022-09-26T14:29:29.739Z,3.03
2022-09-26T14:32:34.981Z,1.70
2022-09-26T14:35:48.420Z,2.15
2022-09-26T14:38:40.223Z,3.15
2022-09-26T14:41:30.364Z,2.03
2022-09-26T14:44:20.653Z,2.33
2022-09-26T14:47:14.884Z,3.35
2022-09-26T14:50:06.733Z,2.85
2022-09-26T14:52:57.530Z,3.25
2022-09-26T14:56:32.488Z,2.58
2022-09-26T14:59:19.305Z,2.50
2022-09-26T15:02:15.383Z,2.50
2022-09-26T15:05:08.599Z,5.78
2022-09-26T15:07:55.875Z,1.95
2022-09-26T15:10:42.833Z,3.35
2022-09-26T15:13:42.508Z,2.15
2022-09-26T15:16:37.553Z,2.72
2022-09-26T15:19:35.782Z,3.00
2022-09-26T15:22:25.680Z,2.20
2022-09-26T15:25:30.688Z,3.60
2022-09-26T15:28:17.634Z,1.80
2022-09-26T15:31:41.376Z,1.77
2022-09-26T15:34:39.824Z,2.53
2022-09-26T15:37:30.177Z,2.17
2022-09-26T15:40:19.738Z,1.67
2022-09-26T15:43:20.460Z,3.50
2022-09-26T15:46:24.121Z,1.90
2022-09-26T15:49:20.198Z,3.95
2022-09-26T15:52:07.533Z,2.85
2022-09-26T15:54:54.689Z,2.55
2022-09-26T15:57:42.736Z,4.55
2022-09-26T16:00:37.633Z,6.07
2022-09-26T16:03:27.517Z,2.80
2022-09-26T16:06:37.519Z,2.42
2022-09-26T16:09:40.108Z,2.60
2022-09-26T16:12:31.773Z,2.92
2022-09-26T16:15:21.868Z,3.13
2022-09-26T16:18:25.270Z,4.57
2022-09-26T16:21:19.871Z,2.08
2022-09-26T16:24:30.445Z,2.67
2022-09-26T16:27:33.221Z,4.00
2022-09-26T16:30:27.167Z,1.70
2022-09-26T16:33:26.347Z,3.42
2022-09-26T16:36:18.734Z,2.10
2022-09-26T16:39:11.969Z,2.25
2022-09-26T16:42:07.384Z,2.15
2022-09-26T16:44:55.494Z,3.75
2022-09-26T16:47:44.627Z,3.97
2022-09-26T16:50:33.983Z,1.80
2022-09-26T16:56:11.925Z,2.33
2022-09-26T16:59:04.124Z,1.92
2022-09-26T17:01:54.878Z,3.42
2022-09-26T17:04:43.364Z,2.38
2022-09-26T17:07:30.232Z,2.08
2022-09-26T17:10:18.459Z,2.97
2022-09-26T17:13:13.913Z,2.92
2022-09-26T17:16:03.511Z,3.15
2022-09-26T17:18:51.126Z,4.55
2022-09-26T17:21:38.784Z,3.20
2022-09-26T17:24:28.147Z,1.80
2022-09-26T17:30:08.090Z,2.70
2022-09-26T17:32:55.142Z,2.05
2022-09-26T17:35:42.307Z,1.55
2022-09-26T17:38:29.276Z,2.17
2022-09-26T17:41:16.534Z,2.30
2022-09-26T17:44:03.557Z,1.73
2022-09-26T17:46:54.108Z,2.30
2022-09-26T17:49:42.289Z,2.28
2022-09-26T17:52:31.578Z,2.85
2022-09-26T17:58:10.277Z,3.40
2022-09-26T18:00:57.326Z,1.52
2022-09-26T18:03:45.047Z,4.57
2022-09-26T18:06:32.886Z,1.88
2022-09-26T18:09:21.000Z,2.50
2022-09-26T18:12:13.711Z,1.95
2022-09-26T18:15:03.799Z,4.20
2022-09-26T18:17:51.594Z,4.13
2022-09-26T18:20:39.415Z,7.05
2022-09-26T18:23:29.263Z,4.10
2022-09-26T18:26:28.930Z,4.55
2022-09-26T18:29:22.645Z,2.83
2022-09-26T18:32:19.731Z,1.88
2022-09-26T18:35:15.986Z,3.33
2022-09-26T18:38:03.461Z,4.13
2022-09-26T18:40:55.326Z,3.17
2022-09-26T18:43:42.946Z,2.65
2022-09-26T18:46:30.516Z,4.72
2022-09-26T18:49:17.864Z,5.03
2022-09-26T18:52:06.329Z,2.30
2022-09-26T18:55:13.178Z,2.72
2022-09-26T18:58:18.384Z,3.45
2022-09-26T19:01:11.753Z,5.47
2022-09-26T19:04:01.860Z,5.57
2022-09-26T19:06:58.921Z,4.38
2022-09-26T19:09:46.042Z,3.72
2022-09-26T19:12:33.136Z,5.25
2022-09-26T19:15:19.971Z,3.05
2022-09-26T19:18:06.804Z,6.32
2022-09-26T19:20:54.163Z,1.50
2022-09-26T19:23:41.364Z,3.42
2022-09-26T19:26:38.959Z,2.53
2022-09-26T19:29:34.575Z,3.15
2022-09-26T19:35:33.394Z,2.75
2022-09-26T19:38:23.548Z,1.75
2022-09-26T19:41:10.486Z,2.00
2022-09-26T19:43:57.431Z,2.28
2022-09-26T19:46:46.046Z,2.22
2022-09-26T19:49:33.057Z,2.30
2022-09-26T19:52:21.011Z,2.88
2022-09-26T19:55:28.745Z,4.00
2022-09-26T19:58:25.837Z,3.80
2022-09-26T20:01:18.451Z,2.45
2022-09-26T20:04:12.952Z,2.00
2022-09-26T20:06:59.910Z,2.65
2022-09-26T20:09:47.451Z,3.25
2022-09-26T20:12:34.285Z,2.45
2022-09-26T20:15:24.216Z,2.70
2022-09-26T20:18:24.180Z,2.72
2022-09-26T20:21:13.412Z,3.33
2022-09-26T20:24:00.724Z,3.08
2022-09-26T20:26:48.220Z,2.65
2022-09-26T20:29:55.352Z,2.28
2022-09-26T20:32:42.864Z,2.47
2022-09-26T20:35:35.618Z,7.78
2022-09-26T20:38:27.860Z,5.80
2022-09-26T20:41:17.453Z,5.38
2022-09-26T20:44:27.948Z,5.38
2022-09-26T20:47:19.673Z,2.83
2022-09-26T20:50:07.775Z,3.47
2022-09-26T20:52:54.631Z,3.97
2022-09-26T20:55:44.090Z,3.28
2022-09-26T20:58:31.266Z,4.15
2022-09-26T21:01:20.394Z,4.18
2022-09-26T21:04:13.729Z,5.18
2022-09-26T21:07:00.618Z,2.35
2022-09-26T21:09:47.530Z,4.13
2022-09-26T21:12:34.353Z,3.10
2022-09-26T21:15:27.025Z,3.50
2022-09-26T21:18:23.247Z,3.67
2022-09-26T21:21:21.040Z,3.80
2022-09-26T21:24:14.406Z,5.60
2022-09-26T21:27:01.375Z,4.72
2022-09-26T21:29:48.217Z,4.43
2022-09-26T21:32:35.103Z,3.95
2022-09-26T21:35:24.896Z,2.35
2022-09-26T21:38:11.802Z,3.45
2022-09-26T21:41:00.613Z,2.30
2022-09-26T21:43:55.254Z,4.20
2022-09-26T21:46:42.143Z,4.95
2022-09-26T21:49:30.225Z,3.78
2022-09-26T21:52:23.935Z,2.50
2022-09-26T21:55:22.341Z,4.18
2022-09-26T21:58:13.248Z,4.40
2022-09-26T22:01:00.244Z,3.60
2022-09-26T22:03:47.230Z,4.32
2022-09-26T22:06:34.731Z,2.40
2022-09-26T22:09:21.593Z,3.58
2022-09-26T22:12:08.473Z,3.22
2022-09-26T22:14:55.601Z,4.88
2022-09-26T22:17:42.934Z,2.10
2022-09-26T22:20:29.826Z,2.10
2022-09-26T22:23:16.754Z,4.15
2022-09-26T22:26:03.912Z,2.65
2022-09-26T22:28:50.879Z,2.58
2022-09-26T22:31:38.247Z,2.20
2022-09-26T22:34:26.233Z,3.85
2022-09-26T22:37:13.102Z,3.38
2022-09-26T22:40:00.022Z,1.80
2022-09-26T22:42:49.903Z,2.15
2022-09-26T22:45:37.248Z,2.85
2022-09-26T22:48:24.098Z,3.58
2022-09-26T22:51:11.073Z,2.72
2022-09-26T22:53:57.950Z,2.78
2022-09-26T22:56:44.788Z,1.70
2022-09-26T22:59:31.639Z,2.70
2022-09-26T23:02:18.509Z,2.90
2022-09-26T23:05:05.784Z,2.45
2022-09-26T23:07:54.652Z,2.42
2022-09-26T23:10:48.493Z,1.95
2022-09-26T23:13:35.847Z,5.43
2022-09-26T23:16:26.704Z,3.63
2022-09-26T23:19:13.597Z,3.28
2022-09-26T23:22:00.818Z,2.75
2022-09-26T23:24:47.685Z,2.53
2022-09-26T23:27:35.481Z,6.40
2022-09-26T23:30:23.131Z,3.28
2022-09-26T23:33:10.619Z,2.72
2022-09-26T23:35:58.253Z,2.35
2022-09-26T23:38:45.544Z,4.90
2022-09-26T23:41:32.394Z,3.38
2022-09-26T23:44:19.245Z,3.60
2022-09-26T23:47:06.140Z,3.05
2022-09-26T23:49:53.326Z,4.10
2022-09-26T23:52:40.210Z,2.80
2022-09-26T23:55:27.286Z,5.43
2022-09-26T23:58:14.764Z,5.20
